Rosewood, Illinois
Current Conditions -  °F | °C
As of 7:50 AM on Sunday 21 Dec 2014 (Local Time) from KALN Reporting Station
Overcast Overcast  
Wind Chill: 30°   Ceiling: 2300
Heat Index: 37°   Visibility: 10mi
Dew Point: 32°   Wind: 12mph
Humidity: 81%   Direction: 140°SE
Pressure: 30.21"   Gusts: NA
Location:  38.8713°N, 90.0443°W
Report Text: KALN 211350Z 14010KT 10SM OVC023 03/00 A3021
Loading
Personal Weather Stations






























Interactive Weather Map New forecast layout! Learn more

10-Day Weather Forecast

Advertisements
Track Severe Weather on mobile